createdAt,value
2018-12-01T00:00:29.347Z,7.47
2018-12-01T00:02:58.204Z,8.60
2018-12-01T00:05:26.530Z,9.23
2018-12-01T00:07:55.341Z,8.57
2018-12-01T00:10:23.681Z,8.97
2018-12-01T00:12:52.139Z,8.67
2018-12-01T00:15:22.587Z,8.40
2018-12-01T00:17:51.291Z,8.70
2018-12-01T00:20:20.705Z,7.57
2018-12-01T00:22:49.420Z,7.60
2018-12-01T00:25:17.866Z,8.40
2018-12-01T00:27:46.327Z,8.40
2018-12-01T00:30:17.466Z,9.50
2018-12-01T00:32:46.865Z,8.53
2018-12-01T00:35:15.474Z,9.10
2018-12-01T00:37:43.923Z,9.13
2018-12-01T00:40:17.284Z,10.07
2018-12-01T00:42:45.952Z,9.97
2018-12-01T00:45:15.354Z,10.57
2018-12-01T00:47:44.502Z,10.43
2018-12-01T00:50:14.000Z,10.50
2018-12-01T00:52:42.405Z,9.90
2018-12-01T00:55:12.219Z,11.07
2018-12-01T00:57:40.535Z,11.77
2018-12-01T01:00:14.700Z,10.83
2018-12-01T01:02:43.027Z,12.00
2018-12-01T01:05:11.364Z,11.10
2018-12-01T01:07:39.723Z,10.60
2018-12-01T01:10:09.695Z,11.73
2018-12-01T01:12:38.127Z,10.57
2018-12-01T01:15:07.612Z,11.33
2018-12-01T01:17:36.340Z,11.80
2018-12-01T01:20:08.591Z,11.63
2018-12-01T01:22:36.894Z,11.70
2018-12-01T01:25:05.767Z,11.23
2018-12-01T01:27:34.067Z,11.23
2018-12-01T01:30:07.588Z,11.07
2018-12-01T01:32:35.918Z,11.33
2018-12-01T01:35:04.200Z,11.60
2018-12-01T01:37:32.493Z,12.63
2018-12-01T01:40:00.785Z,11.60
2018-12-01T01:42:29.162Z,10.90
2018-12-01T01:44:57.695Z,10.87
2018-12-01T01:47:26.024Z,10.57
2018-12-01T01:49:54.299Z,10.43
2018-12-01T01:52:28.239Z,10.03
2018-12-01T01:54:56.531Z,10.13
2018-12-01T01:57:24.876Z,10.70
2018-12-01T01:59:53.143Z,11.00
2018-12-01T02:02:21.456Z,11.43
2018-12-01T02:04:49.766Z,11.27
2018-12-01T02:07:18.059Z,11.13
2018-12-01T02:09:46.414Z,12.30
2018-12-01T02:12:14.735Z,11.57
2018-12-01T02:17:39.288Z,11.07
2018-12-01T02:20:14.860Z,12.57
2018-12-01T02:22:43.170Z,11.73
2018-12-01T02:25:12.537Z,12.07
2018-12-01T02:27:41.399Z,11.60
2018-12-01T02:30:10.955Z,13.00
2018-12-01T02:32:39.609Z,12.53
2018-12-01T02:35:10.573Z,11.27
2018-12-01T02:37:38.942Z,13.27
2018-12-01T02:40:09.451Z,13.13
2018-12-01T02:42:37.838Z,12.23
2018-12-01T02:47:21.123Z,11.87
2018-12-01T02:49:49.472Z,11.47
2018-12-01T02:52:17.822Z,12.00
2018-12-01T02:54:46.095Z,11.43
2018-12-01T02:57:14.416Z,12.17
2018-12-01T02:59:42.699Z,12.27
2018-12-01T03:02:14.023Z,11.63
2018-12-01T03:04:42.351Z,12.43
2018-12-01T03:07:10.628Z,11.73
2018-12-01T03:09:38.930Z,12.33
2018-12-01T03:12:07.240Z,12.20
2018-12-01T03:14:35.536Z,12.50
2018-12-01T03:17:33.132Z,12.80
2018-12-01T03:20:01.556Z,12.40
2018-12-01T03:22:29.893Z,12.33
2018-12-01T03:24:58.299Z,13.20
2018-12-01T03:27:30.821Z,12.60
2018-12-01T03:29:59.116Z,12.83
2018-12-01T03:32:27.502Z,13.40
2018-12-01T03:34:55.768Z,12.50
2018-12-01T03:37:24.034Z,13.33
2018-12-01T03:39:52.377Z,13.93
2018-12-01T03:42:20.674Z,13.37
2018-12-01T03:44:48.999Z,12.73
2018-12-01T03:47:17.461Z,12.43
2018-12-01T03:49:45.922Z,13.20
2018-12-01T03:52:14.336Z,14.37
2018-12-01T03:54:42.946Z,13.00
2018-12-01T03:57:11.211Z,13.63
2018-12-01T03:59:39.639Z,14.13
2018-12-01T04:02:07.953Z,13.63
2018-12-01T04:04:36.241Z,14.37
2018-12-01T04:07:04.670Z,12.83
2018-12-01T04:09:32.954Z,13.50
2018-12-01T04:12:01.256Z,13.47
2018-12-01T04:14:29.597Z,14.37
2018-12-01T04:16:59.750Z,13.93
2018-12-01T04:19:28.031Z,14.13
2018-12-01T04:21:56.312Z,13.77
2018-12-01T04:24:24.590Z,14.73
2018-12-01T04:26:52.910Z,14.87
2018-12-01T04:29:21.188Z,14.40
2018-12-01T04:31:49.512Z,14.27
2018-12-01T04:34:21.945Z,13.83
2018-12-01T04:36:50.613Z,14.27
2018-12-01T04:39:19.200Z,14.57
2018-12-01T04:41:47.549Z,13.63
2018-12-01T04:44:15.814Z,15.50
2018-12-01T04:46:44.131Z,14.23
2018-12-01T04:49:12.404Z,14.60
2018-12-01T04:51:40.712Z,13.50
2018-12-01T04:54:09.026Z,14.37
2018-12-01T04:56:37.463Z,13.07
2018-12-01T04:59:05.943Z,14.63
2018-12-01T05:01:34.239Z,14.07
2018-12-01T05:04:02.582Z,13.73
2018-12-01T05:06:30.918Z,13.50
2018-12-01T05:08:59.170Z,14.57
2018-12-01T05:11:27.530Z,13.63
2018-12-01T05:13:55.815Z,13.93
2018-12-01T05:16:24.133Z,14.33
2018-12-01T05:21:45.113Z,13.53
2018-12-01T05:24:13.483Z,12.80
2018-12-01T05:26:41.940Z,12.90
2018-12-01T05:29:10.271Z,12.87
2018-12-01T05:31:38.546Z,13.23
2018-12-01T05:34:06.859Z,13.13
2018-12-01T05:36:35.145Z,13.53
2018-12-01T05:39:04.658Z,12.97
2018-12-01T05:41:34.630Z,12.97
2018-12-01T05:44:02.932Z,12.67
2018-12-01T05:46:31.260Z,12.27
2018-12-01T05:48:59.539Z,13.43
2018-12-01T05:51:28.177Z,12.67
2018-12-01T05:53:56.462Z,12.23
2018-12-01T05:56:24.760Z,11.93
2018-12-01T05:58:53.022Z,11.30
2018-12-01T06:01:21.347Z,12.07
2018-12-01T06:03:49.634Z,10.37
2018-12-01T06:06:17.908Z,11.57
2018-12-01T06:08:46.222Z,10.93
2018-12-01T06:11:14.837Z,10.93
2018-12-01T06:13:43.149Z,9.90
2018-12-01T06:16:11.532Z,10.07
2018-12-01T06:18:39.859Z,11.03
2018-12-01T06:21:14.061Z,11.03
2018-12-01T06:23:42.433Z,11.17
2018-12-01T06:26:10.696Z,10.00
2018-12-01T06:28:39.048Z,10.80
2018-12-01T06:31:07.370Z,10.90
2018-12-01T06:33:35.688Z,10.40
2018-12-01T06:36:04.757Z,10.47
2018-12-01T06:38:33.217Z,10.00
2018-12-01T06:41:01.573Z,10.90
2018-12-01T06:43:30.703Z,9.83
2018-12-01T06:45:59.030Z,10.50
2018-12-01T06:48:27.357Z,10.03
2018-12-01T06:50:55.687Z,10.67
2018-12-01T06:53:24.043Z,10.00
2018-12-01T06:55:52.327Z,9.97
2018-12-01T06:58:20.606Z,9.87
2018-12-01T07:00:48.931Z,9.77
2018-12-01T07:03:17.235Z,9.70
2018-12-01T07:05:45.597Z,9.60
2018-12-01T07:08:13.915Z,9.67
2018-12-01T07:10:42.198Z,9.90
2018-12-01T07:13:10.464Z,9.10
2018-12-01T07:15:39.658Z,9.87
2018-12-01T07:18:19.313Z,10.10
2018-12-01T07:20:47.649Z,10.27
2018-12-01T07:23:17.023Z,9.83
2018-12-01T07:25:44.280Z,9.60
2018-12-01T07:28:12.587Z,10.00
2018-12-01T07:30:41.208Z,10.57
2018-12-01T07:33:09.488Z,11.20
2018-12-01T07:35:37.853Z,10.43
2018-12-01T07:38:06.473Z,10.77
2018-12-01T07:40:34.775Z,11.13
2018-12-01T07:43:03.088Z,11.60
2018-12-01T07:45:31.566Z,11.27
2018-12-01T07:47:59.876Z,11.23
2018-12-01T07:50:28.190Z,11.67
2018-12-01T07:52:56.484Z,11.43
2018-12-01T07:55:24.816Z,12.07
2018-12-01T07:57:53.135Z,12.47
2018-12-01T08:00:21.477Z,11.43
2018-12-01T08:02:50.396Z,11.77
2018-12-01T08:05:18.772Z,12.07
2018-12-01T08:07:47.348Z,11.57
2018-12-01T08:10:16.256Z,12.40
2018-12-01T08:12:44.751Z,11.53
2018-12-01T08:15:16.894Z,11.57
2018-12-01T08:17:45.574Z,12.57
2018-12-01T08:20:15.253Z,11.97
2018-12-01T08:22:43.676Z,10.63
2018-12-01T08:25:14.146Z,10.00
2018-12-01T08:27:42.458Z,10.80
2018-12-01T08:30:13.707Z,11.63
2018-12-01T08:32:42.072Z,11.23
2018-12-01T08:35:10.424Z,11.17
2018-12-01T08:37:38.738Z,11.90
2018-12-01T08:40:09.426Z,12.30
2018-12-01T08:42:37.861Z,11.77
2018-12-01T08:45:09.913Z,12.03
2018-12-01T08:47:38.506Z,12.07
2018-12-01T08:50:10.267Z,13.13
2018-12-01T08:52:38.649Z,12.80
2018-12-01T08:55:08.922Z,13.57
2018-12-01T08:57:37.346Z,13.33
2018-12-01T09:00:11.574Z,13.27
2018-12-01T09:02:39.983Z,12.53
2018-12-01T09:05:08.433Z,12.83
2018-12-01T09:07:36.900Z,12.07
2018-12-01T09:10:07.262Z,11.73
2018-12-01T09:12:35.686Z,12.20
2018-12-01T09:15:05.046Z,12.43
2018-12-01T09:17:33.336Z,12.20
2018-12-01T09:20:01.620Z,11.13
2018-12-01T09:22:29.972Z,11.10
2018-12-01T09:24:58.363Z,10.67
2018-12-01T09:27:26.769Z,10.43
2018-12-01T09:29:55.257Z,10.33
2018-12-01T09:32:23.699Z,10.30
2018-12-01T09:34:52.104Z,9.10
2018-12-01T09:37:20.426Z,10.10
2018-12-01T09:39:48.746Z,9.40
2018-12-01T09:42:17.058Z,10.67
2018-12-01T09:44:45.409Z,9.77
2018-12-01T09:47:13.798Z,10.07
2018-12-01T09:49:42.202Z,9.57
2018-12-01T09:52:10.538Z,8.30
2018-12-01T09:54:38.974Z,8.73
2018-12-01T09:57:07.334Z,8.77
2018-12-01T09:59:35.666Z,8.67
2018-12-01T10:02:04.054Z,7.77
2018-12-01T10:04:32.382Z,8.57
2018-12-01T10:07:00.719Z,8.03
2018-12-01T10:09:29.087Z,7.53
2018-12-01T10:11:57.799Z,8.13
2018-12-01T10:14:26.461Z,7.73
2018-12-01T10:16:54.802Z,7.57
2018-12-01T10:19:23.118Z,6.83
2018-12-01T10:21:51.485Z,7.60
2018-12-01T10:24:19.777Z,6.87
2018-12-01T10:26:48.065Z,7.27
2018-12-01T10:29:16.540Z,6.13
2018-12-01T10:31:46.598Z,6.27
2018-12-01T10:34:14.931Z,7.10
2018-12-01T10:36:43.277Z,6.67
2018-12-01T10:39:11.629Z,7.00
2018-12-01T10:41:40.039Z,6.57
2018-12-01T10:44:08.374Z,6.33
2018-12-01T10:46:36.775Z,6.50
2018-12-01T10:49:05.234Z,6.70
2018-12-01T10:51:33.596Z,6.77
2018-12-01T10:54:02.190Z,6.77
2018-12-01T10:56:30.579Z,8.07
2018-12-01T10:58:58.931Z,7.40
2018-12-01T11:01:32.812Z,6.67
2018-12-01T11:04:05.652Z,5.60
2018-12-01T11:06:34.106Z,6.30
2018-12-01T11:09:02.773Z,6.33
2018-12-01T11:11:31.071Z,5.87
2018-12-01T11:13:59.502Z,5.73
2018-12-01T11:16:27.773Z,6.03
2018-12-01T11:18:56.108Z,6.40
2018-12-01T11:21:24.776Z,6.63
2018-12-01T11:23:53.062Z,6.20
2018-12-01T11:26:21.383Z,6.80
2018-12-01T11:28:49.687Z,6.50
2018-12-01T11:31:19.205Z,6.70
2018-12-01T11:33:47.624Z,7.43
2018-12-01T11:36:15.967Z,7.10
2018-12-01T11:38:44.353Z,7.53
2018-12-01T11:41:12.670Z,7.53
2018-12-01T11:43:40.946Z,7.40
2018-12-01T11:46:09.347Z,8.00
2018-12-01T11:48:37.663Z,7.13
2018-12-01T11:51:06.128Z,8.47
2018-12-01T11:53:35.425Z,8.13
2018-12-01T11:56:04.907Z,8.07
2018-12-01T11:58:33.255Z,8.50
2018-12-01T12:01:01.579Z,8.57
2018-12-01T12:03:29.884Z,8.07
2018-12-01T12:05:58.197Z,7.80
2018-12-01T12:08:27.343Z,7.93
2018-12-01T12:10:55.845Z,8.23
2018-12-01T12:13:25.871Z,8.10
2018-12-01T12:15:54.208Z,9.17
2018-12-01T12:18:22.696Z,8.20
2018-12-01T12:20:51.034Z,8.30
2018-12-01T12:23:20.244Z,8.70
2018-12-01T12:25:48.556Z,8.60
2018-12-01T12:28:16.879Z,7.90
2018-12-01T12:30:45.574Z,9.27
2018-12-01T12:33:13.963Z,8.17
2018-12-01T12:35:42.394Z,8.83
2018-12-01T12:38:11.152Z,8.23
2018-12-01T12:40:39.544Z,9.03
2018-12-01T12:43:08.012Z,8.50
2018-12-01T12:45:36.713Z,8.57
2018-12-01T12:48:06.276Z,8.67
2018-12-01T12:50:34.680Z,8.77
2018-12-01T12:53:03.056Z,9.07
2018-12-01T12:55:31.410Z,9.07
2018-12-01T12:57:59.700Z,9.73
2018-12-01T13:00:28.547Z,9.03
2018-12-01T13:02:59.843Z,9.13
2018-12-01T13:05:31.490Z,8.90
2018-12-01T13:07:59.789Z,9.23
2018-12-01T13:10:28.245Z,8.83
2018-12-01T13:12:56.589Z,9.60
2018-12-01T13:15:25.176Z,9.30
2018-12-01T13:17:54.093Z,9.37
2018-12-01T13:20:23.865Z,8.40
2018-12-01T13:22:54.341Z,9.17
2018-12-01T13:25:22.689Z,8.73
2018-12-01T13:28:13.530Z,9.57
2018-12-01T13:30:43.632Z,9.10
2018-12-01T13:33:12.014Z,9.40
2018-12-01T13:35:40.351Z,9.90
2018-12-01T13:38:08.774Z,10.13
2018-12-01T13:40:37.360Z,10.37
2018-12-01T13:43:06.358Z,10.13
2018-12-01T13:45:34.759Z,9.83
2018-12-01T13:48:03.085Z,10.07
2018-12-01T13:50:32.255Z,9.90
2018-12-01T13:53:02.036Z,10.23
2018-12-01T13:55:30.331Z,10.47
2018-12-01T13:57:58.730Z,10.57
2018-12-01T14:00:27.677Z,10.97
2018-12-01T14:02:56.010Z,10.40
2018-12-01T14:05:24.350Z,9.33
2018-12-01T14:07:53.012Z,9.07
2018-12-01T14:10:34.844Z,9.60
2018-12-01T14:13:04.871Z,9.27
2018-12-01T14:15:33.507Z,9.80
2018-12-01T14:18:02.002Z,11.00
2018-12-01T14:20:30.358Z,9.77
2018-12-01T14:22:58.683Z,9.00
2018-12-01T14:25:26.977Z,9.07
2018-12-01T14:27:57.708Z,8.27
2018-12-01T14:30:26.063Z,9.80
2018-12-01T14:32:54.426Z,9.33
2018-12-01T14:35:26.089Z,9.03
2018-12-01T14:37:58.835Z,8.80
2018-12-01T14:40:27.235Z,8.53
2018-12-01T14:42:55.655Z,8.60
2018-12-01T14:45:24.314Z,9.23
2018-12-01T14:47:52.724Z,8.27
2018-12-01T14:50:21.175Z,7.07
2018-12-01T14:52:49.590Z,8.00
2018-12-01T14:55:18.292Z,8.70
2018-12-01T14:57:47.201Z,7.93
2018-12-01T15:00:20.675Z,7.80
2018-12-01T15:02:49.772Z,7.73
2018-12-01T15:05:18.153Z,8.20
2018-12-01T15:07:47.336Z,7.97
2018-12-01T15:10:17.648Z,7.80
2018-12-01T15:12:46.075Z,8.63
2018-12-01T15:15:15.789Z,7.83
2018-12-01T15:17:44.126Z,9.00
2018-12-01T15:20:14.456Z,8.83
2018-12-01T15:22:43.686Z,7.87
2018-12-01T15:25:14.220Z,8.20
2018-12-01T15:27:42.550Z,8.07
2018-12-01T15:30:14.426Z,7.60
2018-12-01T15:32:43.490Z,8.37
2018-12-01T15:35:13.096Z,7.90
2018-12-01T15:37:42.284Z,7.73
2018-12-01T15:40:12.386Z,8.23
2018-12-01T15:42:40.959Z,8.13
2018-12-01T15:45:11.248Z,7.63
2018-12-01T15:47:39.625Z,8.40
2018-12-01T15:50:10.191Z,8.77
2018-12-01T15:52:38.799Z,8.37
2018-12-01T15:55:08.954Z,8.77
2018-12-01T15:57:37.411Z,11.40
2018-12-01T16:00:14.365Z,11.80
2018-12-01T16:02:42.758Z,8.70
2018-12-01T16:05:11.930Z,8.90
2018-12-01T16:07:40.515Z,8.90
2018-12-01T16:10:11.273Z,8.77
2018-12-01T16:12:40.243Z,8.73
2018-12-01T16:15:18.446Z,9.03
2018-12-01T16:17:47.719Z,10.67
2018-12-01T16:20:20.676Z,9.27
2018-12-01T16:22:49.843Z,7.70
2018-12-01T16:25:20.256Z,7.83
2018-12-01T16:27:51.410Z,8.10
2018-12-01T16:30:24.067Z,7.47
2018-12-01T16:32:54.875Z,7.60
2018-12-01T16:35:24.129Z,7.77
2018-12-01T16:37:53.302Z,8.07
2018-12-01T16:40:25.215Z,8.07
2018-12-01T16:42:55.359Z,7.90
2018-12-01T16:45:24.446Z,7.50
2018-12-01T16:47:53.468Z,7.83
2018-12-01T16:50:22.872Z,24.47
2018-12-01T16:52:53.320Z,21.17
2018-12-01T16:55:21.920Z,22.20
2018-12-01T16:57:50.650Z,12.47
2018-12-01T17:00:22.002Z,10.73
2018-12-01T17:02:52.918Z,8.47
2018-12-01T17:05:22.150Z,9.27
2018-12-01T17:07:50.659Z,8.50
2018-12-01T17:10:20.114Z,8.60
2018-12-01T17:12:53.633Z,8.73
2018-12-01T17:15:22.439Z,8.07
2018-12-01T17:17:50.820Z,7.37
2018-12-01T17:20:19.449Z,7.90
2018-12-01T17:22:56.185Z,8.23
2018-12-01T17:25:24.707Z,8.13
2018-12-01T17:27:54.120Z,8.87
2018-12-01T17:30:27.644Z,7.83
2018-12-01T17:32:56.819Z,7.87
2018-12-01T17:35:26.401Z,7.17
2018-12-01T17:37:57.553Z,7.03
2018-12-01T17:40:29.435Z,7.23
2018-12-01T17:42:58.966Z,7.53
2018-12-01T17:45:27.352Z,6.97
2018-12-01T17:47:55.818Z,8.07
2018-12-01T17:50:24.747Z,7.40
2018-12-01T17:52:55.277Z,7.30
2018-12-01T17:55:24.831Z,8.40
2018-12-01T17:57:54.250Z,8.63
2018-12-01T18:00:25.599Z,8.63
2018-12-01T18:02:56.909Z,8.50
2018-12-01T18:05:35.905Z,9.17
2018-12-01T18:08:05.879Z,8.73
2018-12-01T18:10:35.579Z,10.40
2018-12-01T18:13:04.338Z,9.80
2018-12-01T18:15:32.651Z,10.90
2018-12-01T18:18:00.991Z,11.03
2018-12-01T18:20:29.631Z,11.63
2018-12-01T18:23:02.013Z,11.87
2018-12-01T18:25:33.133Z,12.30
2018-12-01T18:28:01.810Z,11.47
2018-12-01T18:30:36.858Z,12.17
2018-12-01T18:33:08.201Z,12.83
2018-12-01T18:35:37.032Z,12.60
2018-12-01T18:38:06.352Z,13.67
2018-12-01T18:40:35.103Z,12.93
2018-12-01T18:43:03.631Z,13.53
2018-12-01T18:45:32.230Z,13.17
2018-12-01T18:48:01.931Z,13.63
2018-12-01T18:50:31.317Z,13.53
2018-12-01T18:53:02.346Z,14.53
2018-12-01T18:55:33.006Z,13.20
2018-12-01T18:58:01.742Z,14.43
2018-12-01T19:00:33.715Z,13.23
2018-12-01T19:03:02.141Z,14.20
2018-12-01T19:05:32.646Z,13.37
2018-12-01T19:08:01.210Z,13.70
2018-12-01T19:10:30.688Z,14.30
2018-12-01T19:12:59.983Z,15.03
2018-12-01T19:15:29.008Z,14.17
2018-12-01T19:17:57.859Z,16.37
2018-12-01T19:20:26.345Z,16.33
2018-12-01T19:22:54.812Z,15.37
2018-12-01T19:25:23.923Z,15.47
2018-12-01T19:27:53.635Z,15.97
2018-12-01T19:30:22.363Z,16.13
2018-12-01T19:33:00.744Z,15.70
2018-12-01T19:35:29.226Z,16.07
2018-12-01T19:37:57.533Z,16.87
2018-12-01T19:40:29.439Z,16.87
2018-12-01T19:42:59.153Z,15.90
2018-12-01T19:45:27.982Z,16.40
2018-12-01T19:47:56.371Z,15.37
2018-12-01T19:50:28.867Z,15.47
2018-12-01T19:52:57.489Z,15.70
2018-12-01T19:55:27.045Z,15.47
2018-12-01T19:57:55.536Z,15.97
2018-12-01T20:00:29.095Z,16.13
2018-12-01T20:03:02.829Z,15.77
2018-12-01T20:05:31.360Z,13.13
2018-12-01T20:07:59.970Z,14.40
2018-12-01T20:10:36.325Z,15.00
2018-12-01T20:13:10.437Z,14.53
2018-12-01T20:15:44.214Z,14.43
2018-12-01T20:18:17.084Z,16.67
2018-12-01T20:20:46.189Z,14.63
2018-12-01T20:23:15.024Z,12.90
2018-12-01T20:25:44.181Z,13.13
2018-12-01T20:28:12.785Z,14.10
2018-12-01T20:30:41.319Z,13.27
2018-12-01T20:33:09.858Z,12.37
2018-12-01T20:35:48.398Z,12.67
2018-12-01T20:38:20.879Z,12.00
2018-12-01T20:40:49.253Z,12.30
2018-12-01T20:43:23.148Z,11.67
2018-12-01T20:45:52.653Z,12.30
2018-12-01T20:48:21.117Z,12.27
2018-12-01T20:50:49.483Z,11.93
2018-12-01T20:53:17.867Z,12.00
2018-12-01T20:55:58.159Z,12.67
2018-12-01T20:58:28.641Z,11.93
2018-12-01T21:01:00.207Z,12.90
2018-12-01T21:03:28.656Z,12.77
2018-12-01T21:05:57.177Z,12.27
2018-12-01T21:08:27.997Z,12.90
2018-12-01T21:10:57.530Z,14.23
2018-12-01T21:13:25.876Z,13.40
2018-12-01T21:15:54.497Z,14.23
2018-12-01T21:18:23.111Z,13.50
2018-12-01T21:20:51.439Z,13.13
2018-12-01T21:23:20.794Z,13.63
2018-12-01T21:25:49.192Z,13.80
2018-12-01T21:28:17.547Z,14.77
2018-12-01T21:30:47.317Z,13.80
2018-12-01T21:33:28.138Z,15.13
2018-12-01T21:35:56.568Z,15.17
2018-12-01T21:38:25.313Z,16.07
2018-12-01T21:40:53.703Z,16.47
2018-12-01T21:43:22.164Z,15.50
2018-12-01T21:45:50.741Z,17.10
2018-12-01T21:48:19.121Z,17.27
2018-12-01T21:50:48.760Z,17.07
2018-12-01T21:53:23.277Z,16.13
2018-12-01T21:58:48.525Z,16.87
2018-12-01T22:01:27.595Z,15.63
2018-12-01T22:03:56.626Z,16.67
2018-12-01T22:06:25.281Z,16.33
2018-12-01T22:08:54.204Z,16.33
2018-12-01T22:11:22.745Z,15.60
2018-12-01T22:13:51.069Z,16.37
2018-12-01T22:16:19.511Z,16.07
2018-12-01T22:21:16.460Z,16.70
2018-12-01T22:23:44.838Z,16.03
2018-12-01T22:26:14.019Z,16.40
2018-12-01T22:28:42.369Z,16.50
2018-12-01T22:31:10.904Z,15.00
2018-12-01T22:33:39.365Z,15.93
2018-12-01T22:36:07.875Z,15.27
2018-12-01T22:38:36.763Z,14.13
2018-12-01T22:41:05.866Z,16.70
2018-12-01T22:43:34.182Z,14.93
2018-12-01T22:46:02.528Z,15.57
2018-12-01T22:48:31.006Z,14.87
2018-12-01T22:51:00.233Z,15.23
2018-12-01T22:53:28.847Z,14.47
2018-12-01T22:55:57.612Z,15.60
2018-12-01T22:58:26.128Z,14.47
2018-12-01T23:00:57.793Z,14.63
2018-12-01T23:03:28.048Z,14.43
2018-12-01T23:05:56.845Z,15.30
2018-12-01T23:08:26.997Z,13.73
2018-12-01T23:10:55.998Z,14.60
2018-12-01T23:13:24.358Z,15.10
2018-12-01T23:15:53.129Z,15.00
2018-12-01T23:18:22.835Z,14.90
2018-12-01T23:20:54.363Z,14.07
2018-12-01T23:23:22.915Z,13.90
2018-12-01T23:25:52.900Z,13.90
2018-12-01T23:28:21.214Z,13.47
2018-12-01T23:30:52.409Z,14.00
2018-12-01T23:33:22.370Z,12.83
2018-12-01T23:35:51.450Z,13.10
2018-12-01T23:38:21.526Z,12.30
2018-12-01T23:43:43.099Z,13.10
2018-12-01T23:46:11.562Z,12.77
2018-12-01T23:48:39.909Z,12.97
2018-12-01T23:51:08.257Z,12.70
2018-12-01T23:53:36.624Z,13.27
2018-12-01T23:56:04.998Z,13.40
2018-12-01T23:58:33.331Z,13.23
